Time;durP1;ratioP1;P1;durP2;ratioP2;P2;SDS_P1;SDS_P2;PMS_P1;PMS_P2;Temp;Humidity;BMP_temperature;BMP_pressure;BME280_temperature;BME280_humidity;BME280_pressure;Samples;Min_cycle;Max_cycle;Signal;HPM_P1;HPM_P2
2023/04/27 00:00:39;;;;;;;0.20;0.20;;;;;;;14.19;57.77;100135.66;5038746;28;20032;-64
2023/04/27 00:03:07;;;;;;;0.20;0.20;;;;;;;14.10;58.28;100132.41;5038924;28;20029;-66
2023/04/27 00:05:37;;;;;;;0.20;0.20;;;;;;;14.13;57.78;100131.63;5038669;28;20029;-65
2023/04/27 00:08:08;;;;;;;0.20;0.20;;;;;;;14.25;57.01;100136.09;5038613;28;20037;-66
2023/04/27 00:10:37;;;;;;;0.20;0.20;;;;;;;14.16;55.64;100134.44;5039161;28;20032;-66
2023/04/27 00:13:02;;;;;;;0.20;0.20;;;;;;;14.11;55.12;100120.84;5056206;28;20109;-64
2023/04/27 00:15:32;;;;;;;0.20;0.20;;;;;;;14.16;54.51;100148.44;5038852;28;20116;-64
2023/04/27 00:18:00;;;;;;;0.20;0.20;;;;;;;14.03;54.64;100135.94;5056409;28;20032;-65
2023/04/27 00:20:26;;;;;;;0.28;0.28;;;;;;;13.94;54.25;100143.06;5038428;28;20029;-67
2023/04/27 00:22:56;;;;;;;0.20;0.20;;;;;;;13.93;53.95;100133.88;5038289;28;20036;-67
2023/04/27 00:25:22;;;;;;;0.20;0.20;;;;;;;13.96;55.41;100130.31;5038915;28;20111;-64
2023/04/27 00:27:50;;;;;;;0.20;0.20;;;;;;;13.92;55.47;100135.06;5038231;28;20391;-65
2023/04/27 00:30:18;;;;;;;0.20;0.20;;;;;;;13.92;54.77;100129.47;5038292;28;20037;-65
2023/04/27 00:32:46;;;;;;;0.20;0.20;;;;;;;13.93;54.28;100127.47;5038480;28;20102;-65
2023/04/27 00:35:15;;;;;;;0.20;0.20;;;;;;;13.82;55.05;100138.56;5038207;28;20115;-64
2023/04/27 00:37:44;;;;;;;0.20;0.20;;;;;;;13.82;55.20;100138.56;5038363;28;20028;-68
2023/04/27 00:40:10;;;;;;;0.20;0.20;;;;;;;13.77;55.24;100136.13;5039028;28;20025;-65
2023/04/27 00:42:39;;;;;;;0.20;0.20;;;;;;;13.61;54.74;100131.56;5038008;28;20119;-65
2023/04/27 00:45:05;;;;;;;0.20;0.20;;;;;;;13.56;55.54;100133.91;5038633;28;20563;-66
2023/04/27 00:47:31;;;;;;;0.20;0.20;;;;;;;13.53;54.12;100127.13;5037981;28;20044;-65
2023/04/27 00:49:59;;;;;;;0.20;0.20;;;;;;;13.51;54.05;100125.88;5037964;28;20029;-65
2023/04/27 00:52:27;;;;;;;0.30;0.30;;;;;;;13.50;54.32;100124.28;5037797;28;20496;-65
2023/04/27 00:54:56;;;;;;;0.20;0.20;;;;;;;13.48;53.54;100121.88;5037833;28;20518;-65
2023/04/27 00:57:24;;;;;;;0.20;0.20;;;;;;;13.47;53.04;100120.25;5038044;28;20083;-65
2023/04/27 00:59:52;;;;;;;0.20;0.20;;;;;;;13.51;53.28;100123.88;5037381;28;20067;-65
2023/04/27 01:02:23;;;;;;;0.20;0.20;;;;;;;13.40;53.96;100120.19;5055700;28;20113;-65
2023/04/27 01:04:49;;;;;;;0.20;0.20;;;;;;;13.39;54.07;100126.97;5037780;28;20024;-65
2023/04/27 01:07:15;;;;;;;0.20;0.20;;;;;;;13.39;54.47;100121.38;5037665;28;20131;-64
2023/04/27 01:09:46;;;;;;;0.20;0.20;;;;;;;13.41;54.33;100127.38;5038016;28;20032;-64
2023/04/27 01:12:16;;;;;;;0.20;0.20;;;;;;;13.31;54.81;100088.94;5038013;28;20029;-65
2023/04/27 01:14:42;;;;;;;0.20;0.20;;;;;;;13.56;55.11;100126.34;5037492;28;20025;-65
2023/04/27 01:17:13;;;;;;;0.20;0.20;;;;;;;13.52;54.64;100116.31;5037327;28;20043;-64
2023/04/27 01:19:41;;;;;;;0.20;0.20;;;;;;;13.51;54.65;100109.91;5037851;28;20029;-65
2023/04/27 01:22:09;;;;;;;0.20;0.20;;;;;;;13.56;55.18;100119.94;5037812;28;20131;-63
2023/04/27 01:24:35;;;;;;;0.20;0.20;;;;;;;13.60;55.99;100129.97;5037512;28;20032;-63
2023/04/27 01:27:03;;;;;;;0.20;0.20;;;;;;;13.63;55.33;100126.44;5037423;28;20056;-65
2023/04/27 01:29:34;;;;;;;0.20;0.20;;;;;;;13.53;55.49;100118.75;5037068;28;20464;-65
2023/04/27 01:32:04;;;;;;;0.20;0.20;;;;;;;13.33;56.35;100125.72;5037157;28;20029;-65
2023/04/27 01:34:30;;;;;;;0.20;0.20;;;;;;;13.25;56.76;100126.81;5037616;28;20028;-66
2023/04/27 01:37:01;;;;;;;0.20;0.20;;;;;;;13.21;56.44;100137.09;5037332;28;20392;-63
2023/04/27 01:39:26;;;;;;;0.20;0.20;;;;;;;13.19;57.91;100137.50;5037047;28;20490;-66
2023/04/27 01:41:54;;;;;;;0.20;0.20;;;;;;;13.18;57.23;100140.66;5037172;28;20025;-64
2023/04/27 01:44:21;;;;;;;0.20;0.20;;;;;;;13.21;56.15;100134.31;5036813;28;20033;-64
2023/04/27 01:46:49;;;;;;;0.20;0.20;;;;;;;13.14;55.81;100129.44;5036902;28;20036;-64
2023/04/27 01:49:17;;;;;;;0.20;0.20;;;;;;;13.12;56.42;100140.22;5037417;28;20029;-63
2023/04/27 01:51:48;;;;;;;0.20;0.20;;;;;;;13.14;55.81;100140.63;5036622;28;20095;-64
2023/04/27 01:54:14;;;;;;;0.20;0.20;;;;;;;13.10;56.77;100140.59;5037336;28;20025;-65
2023/04/27 01:56:42;;;;;;;0.20;0.20;;;;;;;13.10;56.31;100137.81;5036642;28;20032;-65
2023/04/27 01:59:08;;;;;;;0.20;0.20;;;;;;;13.08;56.41;100140.16;5036626;28;20055;-65
2023/04/27 02:01:33;;;;;;;0.20;0.20;;;;;;;13.06;55.61;100125.78;5036781;28;20029;-63
2023/04/27 02:03:59;;;;;;;0.20;0.20;;;;;;;13.10;54.78;100135.00;5036550;28;20418;-64
2023/04/27 02:06:30;;;;;;;0.20;0.20;;;;;;;13.08;54.62;100140.16;5036484;28;20083;-63
2023/04/27 02:08:58;;;;;;;0.20;0.20;;;;;;;12.97;54.70;100130.84;5036177;28;20029;-64
2023/04/27 02:11:26;;;;;;;0.20;0.20;;;;;;;12.96;55.74;100145.19;5036412;28;20029;-65
2023/04/27 02:13:51;;;;;;;0.20;0.20;;;;;;;13.01;55.92;100142.88;5036366;28;20036;-64
2023/04/27 02:16:20;;;;;;;0.20;0.20;;;;;;;13.02;55.41;100138.88;5036542;28;20051;-63
2023/04/27 02:18:48;;;;;;;0.20;0.20;;;;;;;13.08;55.50;100133.78;5036392;28;20033;-64
2023/04/27 02:21:18;;;;;;;0.20;0.20;;;;;;;13.08;54.55;100144.94;5035747;28;20024;-64
2023/04/27 02:23:49;;;;;;;0.20;0.20;;;;;;;13.17;54.39;100141.88;5036188;28;20024;-65
2023/04/27 02:26:19;;;;;;;0.20;0.20;;;;;;;13.22;53.50;100152.72;5036455;28;20033;-63
2023/04/27 02:28:48;;;;;;;0.20;0.20;;;;;;;13.12;55.32;100148.59;5036199;28;20029;-65
2023/04/27 02:31:14;;;;;;;0.20;0.20;;;;;;;12.87;56.07;100139.09;5036352;28;20033;-65
2023/04/27 02:33:45;;;;;;;0.20;0.20;;;;;;;12.76;56.02;100141.75;5037143;28;20383;-64
2023/04/27 02:36:12;;;;;;;0.20;0.20;;;;;;;12.74;56.24;100150.50;5036894;28;20422;-65
2023/04/27 02:38:38;;;;;;;0.20;0.20;;;;;;;12.67;56.49;100144.00;5036282;28;20029;-65
2023/04/27 02:41:03;;;;;;;0.20;0.20;;;;;;;12.55;56.25;100153.41;5036194;28;20376;-65
2023/04/27 02:43:31;;;;;;;0.20;0.20;;;;;;;12.51;56.44;100146.97;5035830;28;20032;-65
2023/04/27 02:46:04;;;;;;;0.20;0.20;;;;;;;12.36;56.86;100143.19;5036192;28;20060;-63
2023/04/27 02:48:30;;;;;;;0.20;0.20;;;;;;;12.29;57.75;100141.06;5036397;28;20554;-65
2023/04/27 02:50:56;;;;;;;0.20;0.20;;;;;;;12.42;58.42;100138.91;5036118;28;20124;-64
2023/04/27 02:53:22;;;;;;;0.20;0.20;;;;;;;12.46;56.78;100142.50;5035434;28;20127;-65
2023/04/27 02:55:49;;;;;;;0.20;0.20;;;;;;;12.56;57.49;100144.66;5035791;28;20025;-65
2023/04/27 02:58:15;;;;;;;0.20;0.20;;;;;;;12.66;57.49;100142.41;5036287;28;20383;-63
2023/04/27 03:00:42;;;;;;;0.20;0.20;;;;;;;12.70;55.29;100134.88;5054141;28;20063;-65
2023/04/27 03:03:11;;;;;;;0.20;0.20;;;;;;;12.61;55.15;100137.16;5036481;28;20029;-65
2023/04/27 03:05:41;;;;;;;0.20;0.20;;;;;;;12.53;56.47;100139.84;5035683;28;20032;-65
2023/04/27 03:08:12;;;;;;;0.28;0.28;;;;;;;12.49;56.13;100135.41;5036420;28;20573;-63
2023/04/27 03:10:38;;;;;;;0.20;0.20;;;;;;;12.40;56.30;100157.19;5035651;28;20476;-64
2023/04/27 03:13:08;;;;;;;0.20;0.20;;;;;;;12.38;56.69;100151.97;5035785;28;20036;-65
2023/04/27 03:15:36;;;;;;;0.20;0.20;;;;;;;12.37;55.38;100146.78;5053784;28;20040;-64
2023/04/27 03:18:04;;;;;;;0.20;0.20;;;;;;;12.24;54.84;100140.59;5035626;28;20083;-63
2023/04/27 03:20:32;;;;;;;0.20;0.20;;;;;;;12.14;55.85;100149.59;5035465;28;20029;-63
2023/04/27 03:23:00;;;;;;;0.20;0.20;;;;;;;12.16;56.02;100152.84;5036063;28;20102;-63
2023/04/27 03:25:26;;;;;;;0.20;0.20;;;;;;;12.21;55.41;100158.09;5053977;28;20037;-65
2023/04/27 03:27:54;;;;;;;0.20;0.20;;;;;;;11.97;56.90;100167.66;5036196;28;20028;-64
2023/04/27 03:30:22;;;;;;;0.20;0.20;;;;;;;11.87;57.88;100169.06;5035841;28;20479;-63
2023/04/27 03:32:50;;;;;;;0.20;0.20;;;;;;;11.79;58.54;100172.91;5039752;28;20039;-64
2023/04/27 03:35:18;;;;;;;0.20;0.20;;;;;;;11.80;58.89;100171.72;5039386;28;20025;-64
2023/04/27 03:37:46;;;;;;;0.20;0.20;;;;;;;11.81;59.49;100176.09;5039620;28;20036;-63
2023/04/27 03:40:13;;;;;;;0.20;0.20;;;;;;;11.86;58.09;100161.91;5040970;28;20017;-66
2023/04/27 03:42:40;;;;;;;0.20;0.20;;;;;;;11.88;56.65;100159.56;5039884;28;20091;-63
2023/04/27 03:45:11;;;;;;;0.20;0.20;;;;;;;11.78;57.14;100171.28;5039190;28;20091;-63
2023/04/27 03:47:36;;;;;;;0.20;0.20;;;;;;;11.68;56.45;100161.56;5039737;28;20037;-63
2023/04/27 03:50:07;;;;;;;0.25;0.25;;;;;;;11.68;56.43;100157.97;5039313;28;20383;-64
2023/04/27 03:52:40;;;;;;;0.20;0.20;;;;;;;11.78;55.46;100171.28;5038995;28;20056;-62
2023/04/27 03:55:06;;;;;;;0.25;0.25;;;;;;;11.74;55.07;100174.00;5056697;28;20025;-63
2023/04/27 03:57:34;;;;;;;0.20;0.20;;;;;;;11.66;55.27;100163.91;5038954;28;20044;-64
2023/04/27 04:00:06;;;;;;;0.20;0.20;;;;;;;11.62;55.96;100159.47;5039015;28;20025;-63
2023/04/27 04:02:32;;;;;;;0.20;0.20;;;;;;;11.70;56.38;100164.78;5039639;28;20036;-64
2023/04/27 04:04:59;;;;;;;0.20;0.20;;;;;;;11.72;56.47;100172.78;5039786;28;20029;-65
2023/04/27 04:07:25;;;;;;;0.20;0.20;;;;;;;11.69;57.36;100173.50;5039372;28;20051;-64
2023/04/27 04:09:55;;;;;;;0.20;0.20;;;;;;;11.71;56.90;100166.38;5038684;28;20484;-63
2023/04/27 04:12:24;;;;;;;0.20;0.20;;;;;;;11.71;56.99;100171.16;5038664;28;20463;-63
2023/04/27 04:14:50;;;;;;;0.20;0.20;;;;;;;11.72;58.50;100173.59;5039159;28;20117;-63
2023/04/27 04:17:15;;;;;;;0.20;0.20;;;;;;;11.74;58.08;100164.84;5038573;28;20476;-63
2023/04/27 04:19:44;;;;;;;0.20;0.20;;;;;;;11.84;57.29;100167.03;5038482;28;20021;-64
2023/04/27 04:22:12;;;;;;;0.20;0.20;;;;;;;11.89;57.54;100163.94;5038716;28;20468;-63
2023/04/27 04:24:39;;;;;;;0.20;0.20;;;;;;;11.94;57.60;100177.59;5038465;28;20090;-63
2023/04/27 04:27:07;;;;;;;0.20;0.20;;;;;;;12.02;58.72;100193.25;5038457;28;20091;-65
2023/04/27 04:29:33;;;;;;;0.20;0.20;;;;;;;12.13;58.12;100181.47;5039153;28;20424;-63
2023/04/27 04:31:59;;;;;;;0.20;0.20;;;;;;;12.20;57.36;100187.19;5038723;28;20119;-65
2023/04/27 04:34:30;;;;;;;0.20;0.20;;;;;;;12.93;56.01;100185.84;5038302;28;20025;-64
2023/04/27 04:36:58;;;;;;;0.20;0.20;;;;;;;13.72;54.04;100187.59;5038449;28;20032;-63
2023/04/27 04:39:32;;;;;;;0.20;0.20;;;;;;;14.45;51.78;100187.84;5038492;28;20456;-64
2023/04/27 04:42:01;;;;;;;0.30;0.30;;;;;;;15.20;49.77;100197.50;5056230;28;20031;-63
2023/04/27 04:44:31;;;;;;;0.20;0.20;;;;;;;15.87;48.05;100192.50;5037813;28;20033;-65
2023/04/27 04:46:59;;;;;;;0.20;0.20;;;;;;;16.53;46.13;100198.53;5038409;28;20124;-65
2023/04/27 04:49:29;;;;;;;0.20;0.20;;;;;;;17.12;44.90;100203.66;5038188;28;20029;-65
2023/04/27 04:51:55;;;;;;;0.20;0.20;;;;;;;17.65;44.07;100211.06;5037450;28;20080;-66
2023/04/27 04:54:20;;;;;;;0.20;0.20;;;;;;;18.20;42.31;100210.31;5038186;28;20052;-65
2023/04/27 04:56:51;;;;;;;0.20;0.20;;;;;;;18.79;41.30;100221.47;5037738;28;20399;-65
2023/04/27 04:59:19;;;;;;;0.20;0.20;;;;;;;19.11;40.07;100218.31;5037615;28;20119;-63
2023/04/27 05:01:44;;;;;;;0.20;0.20;;;;;;;19.47;38.95;100224.34;5037539;28;20029;-64
2023/04/27 05:04:12;;;;;;;0.20;0.20;;;;;;;20.00;38.35;100225.66;5037416;28;20036;-65
2023/04/27 05:06:40;;;;;;;0.20;0.20;;;;;;;19.94;36.76;100206.78;5038135;28;20060;-64
2023/04/27 05:09:10;;;;;;;0.20;0.20;;;;;;;20.66;36.38;100239.13;5055086;28;20031;-64
2023/04/27 05:11:41;;;;;;;0.20;0.20;;;;;;;20.96;35.94;100245.06;5037475;28;20032;-64
2023/04/27 05:14:12;;;;;;;0.20;0.20;;;;;;;21.04;35.78;100246.53;5037890;28;20055;-65
2023/04/27 05:16:40;;;;;;;0.20;0.20;;;;;;;21.37;35.93;100241.88;5037696;28;20470;-66
2023/04/27 05:19:07;;;;;;;0.20;0.20;;;;;;;21.68;35.02;100242.44;5037164;28;20090;-67
2023/04/27 05:21:33;;;;;;;0.20;0.20;;;;;;;21.93;34.10;100259.66;5037064;28;20116;-65
2023/04/27 05:24:02;;;;;;;0.20;0.20;;;;;;;22.32;33.33;100249.50;5037137;28;20024;-64
2023/04/27 05:26:27;;;;;;;0.20;0.20;;;;;;;22.48;33.16;100245.88;5037671;28;20467;-65
2023/04/27 05:28:53;;;;;;;0.20;0.20;;;;;;;22.57;33.04;100253.75;5037154;28;20029;-64
2023/04/27 05:31:18;;;;;;;0.20;0.20;;;;;;;22.71;32.63;100259.84;5037655;28;20036;-65
2023/04/27 05:33:44;;;;;;;0.20;0.20;;;;;;;22.83;32.82;100261.16;5037199;28;20113;-61
2023/04/27 05:36:09;;;;;;;0.20;0.20;;;;;;;22.99;31.33;100263.22;5036864;28;20364;-65
2023/04/27 05:38:38;;;;;;;0.20;0.20;;;;;;;23.04;31.69;100271.19;5037205;28;20048;-66
2023/04/27 05:41:06;;;;;;;0.20;0.20;;;;;;;22.97;31.89;100283.53;5037397;28;20029;-65
2023/04/27 05:43:34;;;;;;;0.20;0.20;;;;;;;22.45;31.98;100275.91;5036998;28;20123;-65
2023/04/27 05:46:03;;;;;;;0.20;0.20;;;;;;;22.41;32.43;100272.34;5036651;28;20116;-65
2023/04/27 05:48:33;;;;;;;0.20;0.20;;;;;;;22.20;31.45;100275.69;5036673;28;20379;-65
2023/04/27 05:51:02;;;;;;;0.20;0.20;;;;;;;22.56;30.73;100274.84;5036792;28;20437;-64
2023/04/27 05:53:29;;;;;;;0.20;0.20;;;;;;;22.91;30.61;100276.81;5036015;28;20106;-65
2023/04/27 05:56:00;;;;;;;0.20;0.20;;;;;;;23.71;29.05;100274.19;5035766;28;20598;-65
2023/04/27 05:58:28;;;;;;;0.20;0.20;;;;;;;23.36;29.04;100273.13;5036154;28;20086;-65
2023/04/27 06:00:56;;;;;;;0.20;0.20;;;;;;;23.26;29.42;100282.75;5036421;28;20036;-65
2023/04/27 06:03:26;;;;;;;0.20;0.20;;;;;;;23.24;29.15;100290.94;5036348;28;20060;-63
2023/04/27 06:05:56;;;;;;;0.20;0.20;;;;;;;23.47;30.35;100276.47;5036945;28;20040;-64
2023/04/27 06:08:22;;;;;;;0.20;0.20;;;;;;;23.61;29.54;100292.31;5036685;28;20032;-63
2023/04/27 06:10:49;;;;;;;0.20;0.20;;;;;;;24.00;29.17;100279.81;5036796;28;20367;-63
2023/04/27 06:13:17;;;;;;;0.20;0.20;;;;;;;24.23;27.65;100290.03;5036637;28;20029;-63
2023/04/27 06:15:43;;;;;;;0.20;0.20;;;;;;;24.30;26.18;100287.00;5036553;28;20482;-65
2023/04/27 06:18:09;;;;;;;0.20;0.20;;;;;;;23.63;26.12;100294.72;5053480;28;20108;-63
2023/04/27 06:20:37;;;;;;;0.20;0.20;;;;;;;24.28;26.79;100292.31;5035908;28;20032;-64
2023/04/27 06:23:02;;;;;;;0.20;0.20;;;;;;;24.30;26.09;100297.56;5036107;28;20444;-63
2023/04/27 06:25:28;;;;;;;0.20;0.20;;;;;;;24.41;26.63;100302.94;5036155;28;20060;-63
2023/04/27 06:27:55;;;;;;;0.20;0.20;;;;;;;24.55;26.93;100306.13;5035843;28;20036;-64
2023/04/27 06:30:21;;;;;;;0.13;0.13;;;;;;;24.11;28.28;100313.56;5036053;28;20384;-64
2023/04/27 06:32:51;;;;;;;0.20;0.20;;;;;;;23.63;29.23;100308.94;5035997;28;20068;-64
2023/04/27 06:35:17;;;;;;;0.20;0.20;;;;;;;24.00;30.43;100307.44;5053836;28;20064;-64
2023/04/27 06:37:43;;;;;;;0.20;0.20;;;;;;;22.92;30.07;100309.59;5035720;28;20116;-63
2023/04/27 06:40:10;;;;;;;0.20;0.20;;;;;;;22.79;30.28;100313.56;5035687;28;20021;-64
2023/04/27 06:42:36;;;;;;;0.20;0.20;;;;;;;23.33;29.65;100325.16;5035516;28;20029;-65
2023/04/27 06:45:05;;;;;;;0.15;0.15;;;;;;;23.07;29.27;100323.44;5036080;28;20028;-63
2023/04/27 06:47:33;;;;;;;0.20;0.20;;;;;;;23.00;28.85;100333.69;5035512;28;20029;-65
2023/04/27 06:50:03;;;;;;;0.20;0.20;;;;;;;22.97;30.63;100333.81;5035896;28;20033;-65
2023/04/27 06:52:33;;;;;;;0.20;0.20;;;;;;;22.68;29.44;100333.69;5035210;28;20055;-64
2023/04/27 06:54:59;;;;;;;0.20;0.20;;;;;;;23.25;29.48;100335.09;5035278;28;20029;-63
2023/04/27 06:57:27;;;;;;;0.20;0.20;;;;;;;23.36;29.30;100337.66;5035478;28;20433;-64
2023/04/27 06:59:53;;;;;;;0.20;0.20;;;;;;;23.89;29.09;100341.84;5035416;28;20053;-63
2023/04/27 07:02:21;;;;;;;0.15;0.15;;;;;;;23.30;30.54;100340.22;5035174;28;20063;-64
2023/04/27 07:04:50;;;;;;;0.20;0.20;;;;;;;23.83;30.27;100337.19;5035384;28;20029;-64
2023/04/27 07:07:20;;;;;;;0.17;0.17;;;;;;;23.37;31.02;100337.19;5041513;28;20111;-65
2023/04/27 07:09:48;;;;;;;0.20;0.20;;;;;;;24.00;28.05;100333.00;5042008;28;20052;-65
2023/04/27 07:12:16;;;;;;;0.20;0.20;;;;;;;24.86;27.01;100338.84;5041952;28;20139;-65
2023/04/27 07:14:44;;;;;;;0.10;0.10;;;;;;;23.91;29.85;100339.34;5041746;28;20024;-65
2023/04/27 07:17:12;;;;;;;0.10;0.10;;;;;;;24.48;27.18;100331.94;5059605;28;20112;-65
2023/04/27 07:19:42;;;;;;;0.10;0.10;;;;;;;24.49;26.98;100332.72;5042507;28;20064;-64
2023/04/27 07:22:11;;;;;;;0.17;0.17;;;;;;;25.22;28.41;100333.56;5042063;28;20106;-66
2023/04/27 07:24:39;;;;;;;0.20;0.20;;;;;;;25.84;26.55;100341.56;5041858;28;20041;-64
2023/04/27 07:27:09;;;;;;;0.20;0.20;;;;;;;25.66;25.34;100332.81;5042644;28;20479;-63
2023/04/27 07:29:39;;;;;;;0.20;0.20;;;;;;;24.93;25.84;100345.13;5042078;28;20094;-63
2023/04/27 07:32:06;;;;;;;0.10;0.10;;;;;;;25.86;24.16;100348.38;5042257;28;20063;-64
2023/04/27 07:34:40;;;;;;;0.20;0.20;;;;;;;25.67;27.32;100351.50;5042232;28;20040;-63
2023/04/27 07:37:06;;;;;;;0.10;0.10;;;;;;;26.26;27.15;100346.84;5041842;28;20129;-64
2023/04/27 07:39:35;;;;;;;0.20;0.20;;;;;;;26.94;24.34;100356.34;5041658;28;20494;-64
2023/04/27 07:42:02;;;;;;;0.20;0.20;;;;;;;27.31;23.43;100342.16;5041956;28;20031;-64
2023/04/27 07:44:27;;;;;;;0.20;0.20;;;;;;;27.69;25.19;100347.41;5041722;28;20041;-64
2023/04/27 07:46:55;;;;;;;0.20;0.20;;;;;;;28.14;22.48;100348.66;5041711;28;20025;-64
2023/04/27 07:49:26;;;;;;;0.13;0.13;;;;;;;27.78;23.13;100344.56;5041683;28;20391;-64
2023/04/27 07:51:57;;;;;;;0.10;0.10;;;;;;;28.03;22.74;100349.16;5041596;28;20462;-64
2023/04/27 07:54:25;;;;;;;0.10;0.10;;;;;;;28.00;22.33;100350.09;5042313;28;20403;-64
2023/04/27 07:56:51;;;;;;;0.10;0.10;;;;;;;28.59;20.77;100349.78;5041585;28;20035;-64
2023/04/27 07:59:16;;;;;;;0.10;0.10;;;;;;;28.36;21.31;100348.47;5041633;28;20115;-65
2023/04/27 08:01:47;;;;;;;0.10;0.10;;;;;;;27.24;21.86;100348.19;5041531;28;20040;-64
2023/04/27 08:04:18;;;;;;;0.10;0.10;;;;;;;26.21;22.87;100344.63;5041442;28;20025;-64
2023/04/27 08:06:46;;;;;;;0.10;0.10;;;;;;;25.12;23.69;100334.72;5041469;28;20029;-66
2023/04/27 08:09:16;;;;;;;0.20;0.20;;;;;;;25.15;23.81;100348.06;5042241;28;20082;-64
2023/04/27 08:11:46;;;;;;;0.10;0.10;;;;;;;25.19;24.04;100336.53;5041980;28;20068;-64
2023/04/27 08:14:15;;;;;;;0.20;0.20;;;;;;;25.86;23.26;100347.56;5041734;28;20029;-66
2023/04/27 08:16:43;;;;;;;0.20;0.20;;;;;;;25.74;24.36;100339.88;5040944;28;20036;-64
2023/04/27 08:19:11;;;;;;;0.10;0.10;;;;;;;26.44;23.40;100349.84;5037829;28;20033;-65
2023/04/27 08:21:37;;;;;;;0.20;0.20;;;;;;;27.17;22.42;100337.09;5038716;28;20044;-63
2023/04/27 08:24:05;;;;;;;0.10;0.10;;;;;;;26.67;23.25;100342.00;5038619;28;20051;-65
2023/04/27 08:26:34;;;;;;;0.10;0.10;;;;;;;26.37;23.69;100348.03;5056237;28;20028;-63
2023/04/27 08:29:02;;;;;;;0.20;0.20;;;;;;;26.89;22.88;100351.25;5056176;28;20033;-63
2023/04/27 08:31:28;;;;;;;0.10;0.10;;;;;;;27.10;22.54;100347.53;5037994;28;20029;-66
2023/04/27 08:33:54;;;;;;;0.10;0.10;;;;;;;26.77;22.80;100352.19;5037959;28;20025;-66
2023/04/27 08:36:23;;;;;;;0.10;0.10;;;;;;;27.11;22.92;100349.16;5037579;28;20032;-63
2023/04/27 08:38:52;;;;;;;0.10;0.10;;;;;;;28.27;21.45;100351.31;5037810;28;20033;-65
2023/04/27 08:41:20;;;;;;;0.17;0.17;;;;;;;28.23;21.52;100350.69;5037780;28;20039;-64
2023/04/27 08:43:50;;;;;;;0.10;0.10;;;;;;;27.18;21.60;100344.38;5055524;28;20098;-65
2023/04/27 08:46:28;;;;;;;0.10;0.10;;;;;;;27.38;21.55;100345.53;5037823;28;20029;-65
2023/04/27 08:49:06;;;;;;;0.20;0.20;;;;;;;25.99;22.81;100350.34;5055609;28;20095;-65
2023/04/27 08:51:32;;;;;;;0.20;0.20;;;;;;;26.54;22.87;100345.75;5037440;28;20040;-64
2023/04/27 08:54:01;;;;;;;0.10;0.10;;;;;;;26.94;23.25;100350.63;5037240;28;20562;-64
2023/04/27 08:56:28;;;;;;;0.20;0.20;;;;;;;27.76;22.34;100347.13;5037416;28;20052;-68
2023/04/27 08:58:55;;;;;;;0.20;0.20;;;;;;;27.76;22.75;100352.06;5036917;28;20037;-64
2023/04/27 09:01:24;;;;;;;0.20;0.20;;;;;;;27.54;21.11;100353.00;5037567;28;20438;-64
2023/04/27 09:04:00;;;;;;;0.10;0.10;;;;;;;26.76;22.33;100342.84;5037083;28;20096;-65
2023/04/27 09:06:32;;;;;;;0.20;0.20;;;;;;;25.67;23.72;100340.09;5055323;28;20463;-63
2023/04/27 09:09:01;;;;;;;0.20;0.20;;;;;;;24.96;24.73;100344.19;5037062;28;20123;-66
2023/04/27 09:11:32;;;;;;;0.20;0.20;;;;;;;25.39;24.36;100331.34;5037260;28;20408;-64
2023/04/27 09:14:02;;;;;;;0.20;0.20;;;;;;;26.57;23.68;100344.81;5037163;28;20021;-64
2023/04/27 09:16:29;;;;;;;0.20;0.20;;;;;;;27.05;22.17;100315.91;5037097;28;20040;-65
2023/04/27 09:18:56;;;;;;;0.10;0.10;;;;;;;26.38;21.79;100343.13;5037136;28;20029;-64
2023/04/27 09:21:26;;;;;;;0.10;0.10;;;;;;;26.26;22.69;100335.44;5037067;28;20029;-64
2023/04/27 09:23:55;;;;;;;0.20;0.20;;;;;;;27.08;22.24;100337.88;5036990;28;20104;-65
2023/04/27 09:26:26;;;;;;;0.20;0.20;;;;;;;27.91;21.41;100330.09;5036919;28;20037;-64
2023/04/27 09:28:57;;;;;;;0.10;0.10;;;;;;;28.10;21.72;100336.59;5036768;28;20112;-66
2023/04/27 09:31:36;;;;;;;0.20;0.20;;;;;;;27.34;21.39;100333.44;5036797;28;20029;-66
2023/04/27 09:34:04;;;;;;;0.20;0.20;;;;;;;27.41;21.46;100326.63;5037413;28;20436;-66
2023/04/27 09:36:33;;;;;;;0.10;0.10;;;;;;;27.81;21.41;100331.41;5054802;28;20056;-65
2023/04/27 09:39:05;;;;;;;0.17;0.17;;;;;;;25.63;22.87;100333.75;5036796;28;20029;-66
2023/04/27 09:41:34;;;;;;;0.20;0.20;;;;;;;25.75;23.66;100318.69;5036660;28;20032;-65
2023/04/27 09:44:02;;;;;;;0.20;0.20;;;;;;;25.42;23.48;100324.75;5037203;28;20032;-64
2023/04/27 09:46:32;;;;;;;0.20;0.20;;;;;;;25.15;23.94;100325.28;5036688;28;20036;-66
2023/04/27 09:48:58;;;;;;;0.20;0.20;;;;;;;25.14;24.07;100315.16;5054931;28;20033;-66
2023/04/27 09:51:23;;;;;;;0.20;0.20;;;;;;;25.19;23.37;100316.59;5036287;28;20112;-65
2023/04/27 09:53:57;;;;;;;0.10;0.10;;;;;;;25.95;23.17;100315.50;5035965;28;20135;-63
2023/04/27 09:57:01;;;;;;;0.17;0.17;;;;;;;26.83;22.08;100316.84;5037025;28;20033;-65
2023/04/27 09:59:39;;;;;;;0.20;0.20;;;;;;;27.23;21.82;100316.00;4973435;28;20046;-65
2023/04/27 10:02:10;;;;;;;0.10;0.10;;;;;;;27.50;21.54;100312.34;4973629;28;20509;-65
2023/04/27 10:05:09;;;;;;;0.10;0.10;;;;;;;27.41;21.20;100304.56;5019967;28;20051;-64
2023/04/27 10:07:40;;;;;;;0.20;0.20;;;;;;;28.20;21.00;100324.63;5054646;28;20033;-65
2023/04/27 10:10:15;;;;;;;0.10;0.10;;;;;;;28.53;20.38;100329.63;5035845;28;20475;-65
2023/04/27 10:12:42;;;;;;;0.10;0.10;;;;;;;27.96;20.39;100320.88;5036026;28;20032;-66
2023/04/27 10:15:28;;;;;;;0.10;0.10;;;;;;;27.52;21.30;100326.16;5036366;28;20036;-66
2023/04/27 10:18:02;;;;;;;0.10;0.10;;;;;;;26.78;22.21;100313.81;5035990;28;20117;-66
2023/04/27 10:20:35;;;;;;;0.10;0.10;;;;;;;27.55;22.15;100308.06;5036248;28;20499;-63
2023/04/27 10:23:00;;;;;;;0.10;0.10;;;;;;;26.52;22.51;100314.03;5035756;28;20139;-65
2023/04/27 10:25:28;;;;;;;0.10;0.10;;;;;;;26.43;22.97;100314.03;5035705;28;20037;-66
2023/04/27 10:28:00;;;;;;;0.20;0.20;;;;;;;26.76;22.98;100307.78;5035720;28;20025;-65
2023/04/27 10:30:36;;;;;;;0.15;0.15;;;;;;;26.18;23.62;100305.63;5053612;28;20036;-65
2023/04/27 10:33:09;;;;;;;0.20;0.20;;;;;;;27.26;23.02;100302.81;5036057;28;20091;-65
2023/04/27 10:35:40;;;;;;;0.10;0.10;;;;;;;27.50;22.75;100300.91;5036391;28;20025;-65
2023/04/27 10:38:16;;;;;;;0.10;0.10;;;;;;;28.10;21.98;100308.78;5035655;28;20025;-67
2023/04/27 10:41:02;;;;;;;0.20;0.20;;;;;;;28.10;22.18;100305.13;5035996;28;20108;-66
2023/04/27 10:43:32;;;;;;;0.17;0.17;;;;;;;27.92;21.99;100303.13;5035605;28;20101;-65
2023/04/27 10:46:07;;;;;;;0.10;0.10;;;;;;;27.08;22.89;100301.53;5035442;28;20125;-64
2023/04/27 10:48:32;;;;;;;0.20;0.20;;;;;;;26.45;23.07;100297.22;5035679;28;20036;-66
2023/04/27 10:51:00;;;;;;;0.20;0.20;;;;;;;27.68;22.39;100295.16;5035709;28;20025;-65
2023/04/27 10:53:32;;;;;;;0.20;0.20;;;;;;;28.06;22.43;100281.59;5035198;28;20509;-64
2023/04/27 10:56:00;;;;;;;0.17;0.17;;;;;;;26.55;23.32;100304.56;5053753;28;20029;-65
2023/04/27 10:58:29;;;;;;;0.10;0.10;;;;;;;26.36;22.86;100289.38;5035801;28;20484;-65
2023/04/27 11:00:57;;;;;;;0.20;0.20;;;;;;;25.38;24.18;100269.94;5036078;28;20105;-67
2023/04/27 11:03:28;;;;;;;0.10;0.10;;;;;;;25.43;24.87;100292.13;5035358;28;20025;-65
2023/04/27 11:06:04;;;;;;;0.20;0.20;;;;;;;26.36;23.86;100297.16;5035379;28;20033;-65
2023/04/27 11:08:35;;;;;;;0.20;0.20;;;;;;;26.61;23.32;100294.09;5053291;28;20057;-65
2023/04/27 11:11:05;;;;;;;0.13;0.13;;;;;;;27.10;22.54;100301.84;5035678;28;20521;-66
2023/04/27 11:13:33;;;;;;;0.10;0.10;;;;;;;26.88;22.54;100296.22;5035607;28;20025;-66
2023/04/27 11:16:03;;;;;;;0.10;0.10;;;;;;;27.19;22.80;100292.50;5035276;28;20027;-65
2023/04/27 11:18:30;;;;;;;0.10;0.10;;;;;;;27.13;22.26;100280.91;5035319;28;20029;-67
2023/04/27 11:21:07;;;;;;;0.10;0.10;;;;;;;26.52;23.05;100285.50;5035344;28;20037;-65
2023/04/27 11:23:36;;;;;;;0.20;0.20;;;;;;;26.56;23.57;100282.53;5035246;28;20033;-64
2023/04/27 11:26:15;;;;;;;0.10;0.10;;;;;;;26.41;23.61;100284.34;5053720;28;20025;-66
2023/04/27 11:28:59;;;;;;;0.20;0.20;;;;;;;26.01;24.05;100274.50;5035477;28;20037;-64
2023/04/27 11:31:29;;;;;;;0.10;0.10;;;;;;;26.02;23.94;100270.38;5036094;28;20116;-65